Airfield :
LOGIN :

Register | Disclaimer

   EN    FR    IT 

 










Legend :    VFR   Marginal VFR   IFR   Intensive IFR   Very Intensive IFR
Visi :
Ceiling :
>= 8 km
>= 3000ft
5 to 8 km
1000 to 3000 ft
1500m to 5 km
500 to 1000 ft
800 to 1500m
200 to 500 ft
< 800m
< 200 ft
Symbols :   Thunderstorms  Fog  Heavy snow  Heavy precipitations  Wind > 20 kt
SIGMETs :     Misc.  Thunderstorms  Icing  Turbulence  Mountain Waves  Volcanic Ashes






- Airport Elevation : 856 ft
- IATA code : VGO


LEVX - Vigo Peinador

CURRENT METAR :
  • 161030Z 36005KT 330V060 5000 0800E -RA BCFG SCT008 SCT012 BKN044 08/08 Q0998 NOSIG

EXPIRED METARs :
  • 161000Z VRB03KT 4000 0600E R19/0600D R01/P2000 -RA BCFG SCT007 BKN041 08/08 Q0998 NOSIG
  • 160930Z 01005KT 340V070 5000 0800E -RA BCFG SCT004 SCT010 BKN041 08/08 Q0998 NOSIG
  • 160900Z 01006KT 330V080 5000 0800E -RA BCFG SCT002 SCT010 BKN041 08/08 Q0998 NOSIG
  • 160830Z 02006KT 350V070 1000 0400E R19/1400N R01/P2000 -RA BCFG SCT003 SCT009 BKN030 08/08 Q0998 NOSIG
  • 160813Z 03004KT 330V090 1000 0400E R19/1400D -RA BCFG SCT004 BKN016 BKN036 08/08 Q0999 NOSIG
  • 160800Z VRB02KT 4000 1000E RA BCFG SCT005 BKN016 08/08 Q0998 NOSIG

TAF TAF LEVX
Valid from the 16 at 06:00 until the 17 at 06:00 UTC


160500Z 1606/1706 14005KT 9999 SCT010 BKN030 TX08/1612Z TN03/1706Z
BECMG 1608/1610 36010KT
TEMPO 1606/1618 3000 RA BKN014
TEMPO 1606/1610 0350 -RA FG VV001



MET'MAP, your aeronautical weather chart ! - Copyright ORBIFLY December 2007 - Disclaimer

ORBIFLY MET'MAP TEAM :

Programming & Development : Alexandra Zaïnal
Concept & original design : Baudouin d'Aumeries
Assistance for programming : Marc-Olivier Méhu
Technical & hardware support : Manuel Goepfert

Contact : metmap@orbifly.com




SOURCES & CREDITS :

   NOAA